Time;durP1;ratioP1;P1;durP2;ratioP2;P2;SDS_P1;SDS_P2;PMS_P1;PMS_P2;Temp;Humidity;BMP_temperature;BMP_pressure;BME280_temperature;BME280_humidity;BME280_pressure;Samples;Min_cycle;Max_cycle;Signal;HPM_P1;HPM_P2
2022/08/21 00:01:21;;;;;;;5.97;2.70;;;;;;;;;;5070692;28;20024;-80
2022/08/21 00:03:47;;;;;;;5.78;2.80;;;;;;;;;;5072190;28;20473;-74
2022/08/21 00:06:12;;;;;;;4.47;2.70;;;;;;;;;;5070705;28;20107;-75
2022/08/21 00:08:38;;;;;;;4.82;2.28;;;;;;;;;;5070883;28;20031;-83
2022/08/21 00:11:04;;;;;;;4.00;2.47;;;;;;;;;;5072103;28;20024;-83
2022/08/21 00:13:30;;;;;;;4.88;2.95;;;;;;;;;;5070705;28;20027;-81
2022/08/21 00:15:56;;;;;;;5.63;2.53;;;;;;;;;;5070827;28;20484;-81
2022/08/21 00:18:22;;;;;;;4.93;2.65;;;;;;;;;;5070755;28;20029;-82
2022/08/21 00:20:47;;;;;;;5.35;2.60;;;;;;;;;;5070731;28;20535;-80
2022/08/21 00:23:13;;;;;;;4.47;2.30;;;;;;;;;;5070919;28;20085;-82
2022/08/21 00:25:41;;;;;;;4.90;2.70;;;;;;;;;;5071874;28;20025;-83
2022/08/21 00:28:06;;;;;;;4.38;2.38;;;;;;;;;;5072014;28;20105;-75
2022/08/21 00:30:32;;;;;;;4.25;2.50;;;;;;;;;;5071815;28;20492;-81
2022/08/21 00:32:58;;;;;;;4.70;2.42;;;;;;;;;;5071302;28;20024;-75
2022/08/21 00:35:30;;;;;;;6.03;2.38;;;;;;;;;;5074985;28;20045;-82
2022/08/21 00:37:56;;;;;;;5.00;2.53;;;;;;;;;;5062778;28;20070;-75
2022/08/21 00:40:35;;;;;;;4.47;2.65;;;;;;;;;;5074051;28;20480;-76
2022/08/21 00:43:04;;;;;;;4.38;2.45;;;;;;;;;;5068501;28;20115;-75
2022/08/21 00:45:29;;;;;;;5.63;2.70;;;;;;;;;;5062471;28;20530;-76
2022/08/21 00:47:55;;;;;;;4.82;2.72;;;;;;;;;;5074257;28;20032;-80
2022/08/21 00:50:22;;;;;;;5.78;2.80;;;;;;;;;;5073801;28;20024;-79
2022/08/21 00:52:50;;;;;;;3.88;2.30;;;;;;;;;;5073889;28;20028;-76
2022/08/21 00:55:16;;;;;;;4.90;2.83;;;;;;;;;;5073726;28;20023;-77
2022/08/21 00:57:49;;;;;;;6.25;2.85;;;;;;;;;;5073817;28;20420;-83
2022/08/21 01:00:21;;;;;;;5.53;2.80;;;;;;;;;;5074836;28;20535;-74
2022/08/21 01:02:47;;;;;;;4.35;2.50;;;;;;;;;;5074475;28;20091;-75
2022/08/21 01:05:13;;;;;;;3.70;2.40;;;;;;;;;;5073826;28;20048;-82
2022/08/21 01:07:38;;;;;;;5.55;2.78;;;;;;;;;;5074771;28;20032;-76
2022/08/21 01:10:06;;;;;;;4.05;2.33;;;;;;;;;;5074873;28;20062;-83
2022/08/21 01:12:33;;;;;;;4.30;2.42;;;;;;;;;;5073636;28;20184;-80
2022/08/21 01:14:58;;;;;;;7.70;2.58;;;;;;;;;;5055880;28;20044;-75
2022/08/21 01:17:26;;;;;;;6.03;2.92;;;;;;;;;;5073024;28;20162;-74
2022/08/21 01:19:52;;;;;;;6.18;2.55;;;;;;;;;;5072216;28;20511;-80
2022/08/21 01:22:17;;;;;;;3.78;2.58;;;;;;;;;;5073379;28;20028;-80
2022/08/21 01:24:42;;;;;;;4.63;2.70;;;;;;;;;;5073396;28;20381;-76
2022/08/21 01:27:08;;;;;;;5.15;2.92;;;;;;;;;;5074388;28;20016;-75
2022/08/21 01:29:43;;;;;;;5.13;3.00;;;;;;;;;;5074536;28;20028;-82
2022/08/21 01:32:14;;;;;;;5.45;2.75;;;;;;;;;;5074019;28;20055;-80
2022/08/21 01:34:43;;;;;;;5.05;2.90;;;;;;;;;;5074289;28;20049;-81
2022/08/21 01:37:08;;;;;;;5.88;2.60;;;;;;;;;;5074153;28;20086;-75
2022/08/21 01:39:34;;;;;;;4.07;2.55;;;;;;;;;;5073019;28;20492;-76
2022/08/21 01:42:00;;;;;;;5.60;3.33;;;;;;;;;;5072413;28;20031;-76
2022/08/21 01:44:26;;;;;;;5.10;2.95;;;;;;;;;;5072099;28;20092;-75
2022/08/21 01:46:53;;;;;;;5.35;2.83;;;;;;;;;;5072576;28;20039;-80
2022/08/21 01:49:19;;;;;;;4.68;2.80;;;;;;;;;;5074273;28;20489;-81
2022/08/21 01:51:44;;;;;;;5.85;3.00;;;;;;;;;;5072580;28;20071;-82
2022/08/21 01:54:10;;;;;;;6.65;3.00;;;;;;;;;;5072710;28;20060;-83
2022/08/21 01:56:47;;;;;;;7.68;3.10;;;;;;;;;;5072495;28;20385;-78
2022/08/21 01:59:13;;;;;;;6.45;3.42;;;;;;;;;;5073938;28;20533;-75
2022/08/21 02:01:41;;;;;;;5.68;3.05;;;;;;;;;;5072074;28;20032;-80
2022/08/21 02:04:07;;;;;;;4.95;3.15;;;;;;;;;;5056432;28;20481;-79
2022/08/21 02:06:33;;;;;;;6.32;3.00;;;;;;;;;;5071993;28;20404;-75
2022/08/21 02:08:58;;;;;;;5.18;2.95;;;;;;;;;;5072501;28;20025;-83
2022/08/21 02:11:24;;;;;;;5.03;2.80;;;;;;;;;;5072207;28;20476;-82
2022/08/21 02:13:49;;;;;;;5.90;3.67;;;;;;;;;;5072408;28;20016;-75
2022/08/21 02:16:16;;;;;;;6.38;3.88;;;;;;;;;;5072226;28;20056;-75
2022/08/21 02:18:41;;;;;;;5.13;3.08;;;;;;;;;;5073660;28;20048;-76
2022/08/21 02:21:07;;;;;;;6.20;3.25;;;;;;;;;;5071570;28;20637;-75
2022/08/21 02:23:33;;;;;;;6.30;3.47;;;;;;;;;;5072211;28;20048;-76
2022/08/21 02:26:00;;;;;;;7.05;3.45;;;;;;;;;;5071962;28;20035;-83
2022/08/21 02:28:26;;;;;;;4.93;3.15;;;;;;;;;;5071065;28;20028;-83
2022/08/21 02:30:52;;;;;;;5.57;3.17;;;;;;;;;;5071848;28;20035;-83
2022/08/21 02:33:18;;;;;;;6.28;3.20;;;;;;;;;;5073366;28;20033;-74
2022/08/21 02:35:45;;;;;;;6.55;4.38;;;;;;;;;;5072598;28;20736;-75
2022/08/21 02:38:16;;;;;;;6.50;3.70;;;;;;;;;;5072085;28;20043;-83
2022/08/21 02:40:44;;;;;;;7.35;3.88;;;;;;;;;;5055671;28;20033;-80
2022/08/21 02:43:10;;;;;;;5.63;3.42;;;;;;;;;;5057655;28;20154;-81
2022/08/21 02:45:36;;;;;;;7.10;3.75;;;;;;;;;;5072896;28;20054;-83
2022/08/21 02:48:05;;;;;;;5.90;4.20;;;;;;;;;;5072928;28;20471;-76
2022/08/21 02:50:39;;;;;;;5.63;3.92;;;;;;;;;;5072826;28;20032;-83
2022/08/21 02:53:06;;;;;;;6.30;4.05;;;;;;;;;;5071636;28;20032;-80
2022/08/21 02:55:33;;;;;;;5.97;3.90;;;;;;;;;;5054861;28;20032;-77
2022/08/21 02:57:59;;;;;;;6.53;3.65;;;;;;;;;;5071655;28;20067;-78
2022/08/21 03:00:27;;;;;;;4.97;3.33;;;;;;;;;;5072770;28;20023;-74
2022/08/21 03:02:53;;;;;;;5.30;3.20;;;;;;;;;;5071174;28;20032;-76
2022/08/21 03:05:19;;;;;;;6.57;3.28;;;;;;;;;;5071851;28;20483;-77
2022/08/21 03:07:46;;;;;;;4.78;3.20;;;;;;;;;;5072720;28;20021;-76
2022/08/21 03:10:11;;;;;;;6.28;3.50;;;;;;;;;;5071020;28;20552;-75
2022/08/21 03:12:37;;;;;;;6.50;3.60;;;;;;;;;;5071243;28;20059;-83
2022/08/21 03:15:04;;;;;;;6.93;3.63;;;;;;;;;;5072802;28;20028;-76
2022/08/21 03:17:30;;;;;;;5.22;3.80;;;;;;;;;;5067718;28;20081;-76
2022/08/21 03:19:56;;;;;;;14.27;3.95;;;;;;;;;;5072910;28;20476;-76
2022/08/21 03:22:22;;;;;;;5.10;3.53;;;;;;;;;;5070638;28;20033;-76
2022/08/21 03:24:48;;;;;;;5.22;3.85;;;;;;;;;;5071357;28;20392;-79
2022/08/21 03:27:14;;;;;;;4.88;3.65;;;;;;;;;;5071239;28;20035;-76
2022/08/21 03:29:39;;;;;;;5.68;3.95;;;;;;;;;;5072694;28;20016;-75
2022/08/21 03:32:08;;;;;;;4.95;3.38;;;;;;;;;;5072276;28;20040;-75
2022/08/21 03:34:37;;;;;;;5.15;3.80;;;;;;;;;;5071056;28;20106;-80
2022/08/21 03:37:05;;;;;;;5.55;3.80;;;;;;;;;;5070823;28;20107;-83
2022/08/21 03:39:30;;;;;;;6.72;3.90;;;;;;;;;;5071117;28;20112;-83
2022/08/21 03:41:55;;;;;;;5.13;3.60;;;;;;;;;;5072518;28;20112;-75
2022/08/21 03:44:21;;;;;;;5.43;3.70;;;;;;;;;;5072465;28;20485;-83
2022/08/21 03:46:46;;;;;;;5.68;3.92;;;;;;;;;;5072407;28;20054;-75
2022/08/21 03:49:12;;;;;;;5.90;4.05;;;;;;;;;;5072313;28;20028;-84
2022/08/21 03:51:38;;;;;;;5.28;3.80;;;;;;;;;;5071978;28;20028;-83
2022/08/21 03:54:03;;;;;;;5.55;3.50;;;;;;;;;;5070931;28;20149;-76
2022/08/21 03:56:29;;;;;;;5.57;4.00;;;;;;;;;;5071136;28;20017;-76
2022/08/21 03:58:55;;;;;;;6.28;4.13;;;;;;;;;;5072256;28;20024;-80
2022/08/21 04:01:20;;;;;;;6.10;3.90;;;;;;;;;;5070770;28;20536;-76
2022/08/21 04:03:46;;;;;;;8.30;4.13;;;;;;;;;;5072220;28;20103;-80
2022/08/21 04:06:11;;;;;;;5.72;3.75;;;;;;;;;;5050776;28;20048;-74
2022/08/21 04:08:37;;;;;;;6.22;3.83;;;;;;;;;;5073860;28;20470;-76
2022/08/21 04:11:05;;;;;;;5.65;3.70;;;;;;;;;;5075904;28;20047;-80
2022/08/21 04:13:31;;;;;;;4.68;3.75;;;;;;;;;;5074587;28;20036;-76
2022/08/21 04:15:58;;;;;;;6.55;3.90;;;;;;;;;;5074522;28;20032;-75
2022/08/21 04:18:24;;;;;;;6.25;3.83;;;;;;;;;;5075672;28;20024;-76
2022/08/21 04:20:51;;;;;;;8.88;3.90;;;;;;;;;;5075248;28;20054;-76
2022/08/21 04:23:19;;;;;;;6.25;4.03;;;;;;;;;;5059445;28;20487;-84
2022/08/21 04:25:44;;;;;;;7.32;4.07;;;;;;;;;;5074494;28;20059;-76
2022/08/21 04:28:10;;;;;;;6.47;4.07;;;;;;;;;;5074274;28;20055;-76
2022/08/21 04:30:35;;;;;;;6.85;4.03;;;;;;;;;;5074147;28;20119;-84
2022/08/21 04:33:00;;;;;;;6.53;3.92;;;;;;;;;;5074540;28;20032;-75
2022/08/21 04:35:27;;;;;;;6.20;4.10;;;;;;;;;;5074764;28;20049;-76
2022/08/21 04:37:53;;;;;;;6.07;3.42;;;;;;;;;;5075191;28;20115;-80
2022/08/21 04:40:21;;;;;;;7.90;4.43;;;;;;;;;;5074164;28;20516;-76
2022/08/21 04:42:50;;;;;;;9.25;4.80;;;;;;;;;;5073872;28;20051;-83
2022/08/21 04:45:19;;;;;;;6.05;4.07;;;;;;;;;;5073913;28;20026;-75
2022/08/21 04:47:45;;;;;;;6.75;4.72;;;;;;;;;;5075688;28;20530;-80
2022/08/21 04:50:10;;;;;;;8.23;4.40;;;;;;;;;;5074069;28;20025;-80
2022/08/21 04:52:37;;;;;;;6.82;4.90;;;;;;;;;;5074142;28;20059;-83
2022/08/21 04:55:03;;;;;;;7.55;5.00;;;;;;;;;;5075053;28;20476;-76
2022/08/21 04:57:28;;;;;;;6.03;4.60;;;;;;;;;;5075014;28;20070;-84
2022/08/21 04:59:54;;;;;;;6.88;4.63;;;;;;;;;;5073947;28;20024;-75
2022/08/21 05:02:21;;;;;;;6.38;4.50;;;;;;;;;;5074996;28;20374;-75
2022/08/21 05:04:50;;;;;;;6.20;4.18;;;;;;;;;;5073486;28;20115;-83
2022/08/21 05:07:20;;;;;;;8.20;5.47;;;;;;;;;;5073551;28;20511;-76
2022/08/21 05:09:46;;;;;;;7.57;4.78;;;;;;;;;;5075012;28;20024;-84
2022/08/21 05:12:12;;;;;;;7.50;4.68;;;;;;;;;;5073436;28;20028;-76
2022/08/21 05:14:37;;;;;;;6.95;4.72;;;;;;;;;;5073430;28;20012;-82
2022/08/21 05:17:04;;;;;;;7.05;4.13;;;;;;;;;;5074634;28;20477;-80
2022/08/21 05:19:29;;;;;;;7.60;4.40;;;;;;;;;;5074427;28;20106;-76
2022/08/21 05:21:55;;;;;;;6.88;4.22;;;;;;;;;;5074443;28;20029;-84
2022/08/21 05:24:20;;;;;;;6.45;4.60;;;;;;;;;;5073096;28;20017;-81
2022/08/21 05:26:46;;;;;;;7.13;4.30;;;;;;;;;;5073556;28;20476;-76
2022/08/21 05:29:13;;;;;;;6.53;4.40;;;;;;;;;;5074646;28;20037;-75
2022/08/21 05:31:38;;;;;;;8.40;4.40;;;;;;;;;;5073109;28;20043;-74
2022/08/21 05:34:04;;;;;;;7.05;4.38;;;;;;;;;;5072866;28;20480;-76
2022/08/21 05:36:30;;;;;;;10.45;5.05;;;;;;;;;;5072759;28;20050;-75
2022/08/21 05:38:55;;;;;;;6.82;4.05;;;;;;;;;;5074583;28;20358;-74
2022/08/21 05:41:21;;;;;;;9.43;5.40;;;;;;;;;;5074184;28;20046;-75
2022/08/21 05:43:46;;;;;;;6.28;4.32;;;;;;;;;;5074449;28;20070;-76
2022/08/21 05:46:12;;;;;;;5.95;4.07;;;;;;;;;;5074015;28;20043;-83
2022/08/21 05:48:37;;;;;;;7.60;4.30;;;;;;;;;;5074229;28;20392;-85
2022/08/21 05:51:08;;;;;;;5.15;3.70;;;;;;;;;;5073707;28;20034;-76
2022/08/21 05:53:33;;;;;;;7.97;4.60;;;;;;;;;;5072847;28;20489;-74
2022/08/21 05:56:03;;;;;;;6.35;4.70;;;;;;;;;;5073934;28;20103;-76
2022/08/21 05:58:31;;;;;;;8.00;4.28;;;;;;;;;;5058914;28;20112;-79
2022/08/21 06:00:57;;;;;;;6.70;4.07;;;;;;;;;;5072358;28;20059;-83
2022/08/21 06:03:26;;;;;;;7.43;4.25;;;;;;;;;;5072771;28;20024;-83
2022/08/21 06:05:53;;;;;;;5.97;3.97;;;;;;;;;;5057890;28;20050;-83
2022/08/21 06:08:19;;;;;;;6.72;3.72;;;;;;;;;;5072428;28;20027;-76
2022/08/21 06:10:47;;;;;;;8.43;4.38;;;;;;;;;;5073390;28;20036;-83
2022/08/21 06:13:13;;;;;;;5.40;3.72;;;;;;;;;;5072292;28;20035;-75
2022/08/21 06:15:38;;;;;;;6.15;3.63;;;;;;;;;;5073442;28;20494;-75
2022/08/21 06:18:04;;;;;;;10.20;4.57;;;;;;;;;;5073270;28;20106;-83
2022/08/21 06:20:29;;;;;;;7.28;4.32;;;;;;;;;;5072129;28;20024;-74
2022/08/21 06:22:55;;;;;;;6.72;4.30;;;;;;;;;;5072314;28;20476;-75
2022/08/21 06:25:20;;;;;;;8.20;3.83;;;;;;;;;;5073092;28;20016;-75
2022/08/21 06:27:46;;;;;;;6.38;3.63;;;;;;;;;;5073180;28;20062;-80
2022/08/21 06:30:13;;;;;;;7.50;3.75;;;;;;;;;;5071561;28;20024;-76
2022/08/21 06:32:38;;;;;;;6.97;3.90;;;;;;;;;;5068051;28;20024;-76
2022/08/21 06:35:05;;;;;;;5.80;3.58;;;;;;;;;;5071481;28;20063;-75
2022/08/21 06:37:31;;;;;;;5.93;3.58;;;;;;;;;;5071792;28;20032;-80
2022/08/21 06:39:57;;;;;;;6.57;3.85;;;;;;;;;;5072102;28;20380;-75
2022/08/21 06:42:22;;;;;;;6.82;3.78;;;;;;;;;;5071787;28;20032;-76
2022/08/21 06:44:47;;;;;;;6.82;3.78;;;;;;;;;;5072823;28;20481;-81
2022/08/21 06:47:13;;;;;;;7.57;3.47;;;;;;;;;;5071784;28;20029;-85
2022/08/21 06:49:39;;;;;;;6.53;3.85;;;;;;;;;;5071392;28;20427;-76
2022/08/21 06:52:10;;;;;;;5.38;3.10;;;;;;;;;;5071687;28;20029;-83
2022/08/21 06:54:35;;;;;;;8.43;4.18;;;;;;;;;;5071413;28;20059;-80
2022/08/21 06:57:01;;;;;;;10.35;4.60;;;;;;;;;;5071506;28;20055;-76
2022/08/21 06:59:28;;;;;;;7.65;3.85;;;;;;;;;;5072132;28;20081;-80
2022/08/21 07:01:53;;;;;;;7.43;3.83;;;;;;;;;;5071167;28;20025;-76
2022/08/21 07:04:19;;;;;;;6.75;3.47;;;;;;;;;;5072877;28;20035;-74
2022/08/21 07:06:45;;;;;;;9.23;4.28;;;;;;;;;;5072602;28;20024;-83
2022/08/21 07:09:10;;;;;;;6.68;4.07;;;;;;;;;;5071510;28;20107;-84
2022/08/21 07:11:36;;;;;;;8.75;4.07;;;;;;;;;;5070653;28;20016;-76
2022/08/21 07:14:02;;;;;;;8.75;3.85;;;;;;;;;;5072592;28;20066;-75
2022/08/21 07:16:28;;;;;;;8.40;3.70;;;;;;;;;;5072372;28;20020;-75
2022/08/21 07:18:53;;;;;;;7.97;4.20;;;;;;;;;;5071555;28;20024;-81
2022/08/21 07:21:19;;;;;;;8.63;3.60;;;;;;;;;;5070904;28;20024;-80
2022/08/21 07:23:48;;;;;;;7.05;3.33;;;;;;;;;;5071527;28;20020;-81
2022/08/21 07:26:15;;;;;;;8.02;3.60;;;;;;;;;;5071270;28;20071;-75
2022/08/21 07:28:40;;;;;;;8.85;3.75;;;;;;;;;;5071466;28;20489;-80
2022/08/21 07:31:08;;;;;;;11.48;3.70;;;;;;;;;;5071066;28;20031;-75
2022/08/21 07:33:34;;;;;;;9.38;3.50;;;;;;;;;;5071143;28;20021;-84
2022/08/21 07:36:00;;;;;;;10.55;4.45;;;;;;;;;;5070285;28;20374;-75
2022/08/21 07:38:26;;;;;;;8.82;3.58;;;;;;;;;;5072570;28;20050;-81
2022/08/21 07:40:56;;;;;;;10.23;3.58;;;;;;;;;;5070988;28;20035;-80
2022/08/21 07:43:21;;;;;;;11.93;3.38;;;;;;;;;;5072972;28;20047;-76
2022/08/21 07:45:49;;;;;;;6.15;3.17;;;;;;;;;;5075014;28;20123;-80
2022/08/21 07:48:15;;;;;;;8.13;3.40;;;;;;;;;;5066179;28;20032;-83
2022/08/21 07:50:41;;;;;;;8.93;3.40;;;;;;;;;;5076048;28;20121;-84
2022/08/21 07:53:07;;;;;;;8.50;3.38;;;;;;;;;;5076371;28;20414;-76
2022/08/21 07:55:33;;;;;;;8.57;3.17;;;;;;;;;;5074890;28;20028;-76
2022/08/21 07:57:58;;;;;;;8.15;3.10;;;;;;;;;;5074811;28;20107;-76
2022/08/21 08:00:25;;;;;;;7.43;2.80;;;;;;;;;;5074824;28;20419;-83
2022/08/21 08:02:52;;;;;;;6.97;2.60;;;;;;;;;;5074939;28;20021;-81
2022/08/21 08:05:20;;;;;;;8.32;3.03;;;;;;;;;;5074573;28;20021;-80
2022/08/21 08:07:47;;;;;;;8.32;2.92;;;;;;;;;;5076103;28;20032;-75
2022/08/21 08:10:15;;;;;;;7.65;2.97;;;;;;;;;;5074860;28;20020;-81
2022/08/21 08:12:42;;;;;;;12.48;3.00;;;;;;;;;;5075728;28;20454;-81
2022/08/21 08:15:11;;;;;;;8.38;3.20;;;;;;;;;;5074626;28;20024;-85
2022/08/21 08:17:38;;;;;;;8.27;3.28;;;;;;;;;;5074380;28;20028;-76
2022/08/21 08:20:07;;;;;;;9.75;3.35;;;;;;;;;;5074426;28;20127;-83
2022/08/21 08:22:38;;;;;;;9.05;3.20;;;;;;;;;;5073729;28;20067;-81
2022/08/21 08:25:05;;;;;;;9.80;2.97;;;;;;;;;;5075668;28;20012;-75
2022/08/21 08:27:30;;;;;;;6.63;2.50;;;;;;;;;;5074462;28;20044;-77
2022/08/21 08:29:56;;;;;;;8.05;2.90;;;;;;;;;;5074400;28;20058;-75
2022/08/21 08:32:22;;;;;;;5.90;2.30;;;;;;;;;;5074058;28;20024;-81
2022/08/21 08:34:51;;;;;;;7.35;2.65;;;;;;;;;;5074206;28;20117;-81
2022/08/21 08:37:17;;;;;;;8.93;2.70;;;;;;;;;;5074135;28;20025;-84
2022/08/21 08:39:42;;;;;;;7.43;2.83;;;;;;;;;;5075726;28;20028;-81
2022/08/21 08:42:15;;;;;;;8.40;2.65;;;;;;;;;;5074097;28;20047;-75
2022/08/21 08:44:42;;;;;;;5.93;2.50;;;;;;;;;;5061582;28;20378;-75
2022/08/21 08:47:11;;;;;;;7.10;2.35;;;;;;;;;;5073734;28;20031;-81
2022/08/21 08:49:45;;;;;;;7.93;2.40;;;;;;;;;;5075340;28;20024;-84
2022/08/21 08:52:22;;;;;;;7.63;2.47;;;;;;;;;;5073739;28;20016;-75
2022/08/21 08:54:55;;;;;;;7.78;3.08;;;;;;;;;;5073146;28;20392;-82
2022/08/21 08:57:23;;;;;;;6.63;2.45;;;;;;;;;;5075073;28;20016;-76
2022/08/21 08:59:52;;;;;;;6.95;2.17;;;;;;;;;;5075141;28;20028;-81
2022/08/21 09:02:18;;;;;;;8.02;2.28;;;;;;;;;;5073568;28;20039;-75
2022/08/21 09:04:47;;;;;;;6.78;2.05;;;;;;;;;;5075283;28;20031;-82
2022/08/21 09:07:40;;;;;;;7.30;2.63;;;;;;;;;;5073507;28;20041;-81
2022/08/21 09:10:23;;;;;;;;;;;;;;;;;;5063651;28;20025;-84
2022/08/21 09:13:01;;;;;;;10.80;2.57;;;;;;;;;;5073087;28;19912;-83
2022/08/21 09:15:33;;;;;;;5.57;2.20;;;;;;;;;;5073486;28;20033;-85
2022/08/21 09:18:04;;;;;;;5.78;1.90;;;;;;;;;;5073058;28;20020;-75
2022/08/21 09:20:52;;;;;;;5.65;2.45;;;;;;;;;;5074442;28;20047;-81
2022/08/21 09:23:31;;;;;;;5.07;1.75;;;;;;;;;;5066180;28;20373;-76
2022/08/21 09:26:19;;;;;;;7.20;1.83;;;;;;;;;;5073331;28;20477;-76
2022/08/21 09:28:47;;;;;;;8.57;1.83;;;;;;;;;;5073185;28;20381;-82
2022/08/21 09:31:28;;;;;;;6.00;1.83;;;;;;;;;;5073227;28;20024;-82
2022/08/21 09:34:01;;;;;;;3.13;1.45;;;;;;;;;;5072849;28;20037;-76
2022/08/21 09:36:40;;;;;;;5.60;1.45;;;;;;;;;;5074508;28;20552;-75
2022/08/21 09:39:07;;;;;;;4.13;1.48;;;;;;;;;;5073344;28;20020;-84
2022/08/21 09:41:35;;;;;;;6.72;1.85;;;;;;;;;;5074081;28;20032;-76
2022/08/21 09:44:02;;;;;;;4.95;1.83;;;;;;;;;;5074484;28;20020;-82
2022/08/21 09:46:28;;;;;;;5.25;1.60;;;;;;;;;;5072869;28;20056;-84
2022/08/21 09:48:56;;;;;;;6.82;1.63;;;;;;;;;;5073108;28;20036;-82
2022/08/21 09:51:27;;;;;;;5.13;1.77;;;;;;;;;;5072507;28;20054;-83
2022/08/21 09:54:05;;;;;;;4.85;1.90;;;;;;;;;;5072821;28;20035;-77
2022/08/21 09:59:41;;;;;;;5.45;1.80;;;;;;;;;;5061581;28;20467;-82
2022/08/21 10:02:30;;;;;;;4.45;1.73;;;;;;;;;;5072270;28;20028;-82
2022/08/21 10:04:59;;;;;;;4.55;1.80;;;;;;;;;;5073661;28;20081;-75
2022/08/21 10:07:28;;;;;;;4.03;1.73;;;;;;;;;;5073237;28;20078;-77
2022/08/21 10:10:07;;;;;;;14.13;3.80;;;;;;;;;;5072575;28;20029;-76
2022/08/21 10:12:58;;;;;;;6.78;2.00;;;;;;;;;;5071669;28;20048;-85
2022/08/21 10:15:32;;;;;;;4.57;1.88;;;;;;;;;;5073330;28;20028;-76
2022/08/21 10:18:17;;;;;;;6.78;2.03;;;;;;;;;;5073006;28;20028;-82
2022/08/21 10:21:04;;;;;;;5.43;1.80;;;;;;;;;;5073166;28;20030;-85
2022/08/21 10:23:44;;;;;;;5.80;1.83;;;;;;;;;;5072452;28;20414;-84
2022/08/21 10:26:47;;;;;;;5.35;1.95;;;;;;;;;;5071959;28;20480;-84
2022/08/21 10:29:34;;;;;;;4.38;2.00;;;;;;;;;;5072293;28;20024;-85
2022/08/21 10:32:21;;;;;;;5.68;1.75;;;;;;;;;;5071792;28;20032;-77
2022/08/21 10:34:59;;;;;;;4.40;1.63;;;;;;;;;;5071756;28;20157;-76
2022/08/21 10:38:06;;;;;;;6.35;1.70;;;;;;;;;;5071467;28;20082;-77
2022/08/21 10:40:37;;;;;;;3.05;1.50;;;;;;;;;;5071833;28;20119;-77
2022/08/21 10:43:18;;;;;;;3.63;1.60;;;;;;;;;;5071954;28;20028;-84
2022/08/21 10:45:53;;;;;;;4.82;1.90;;;;;;;;;;5071632;28;20488;-82
2022/08/21 10:48:34;;;;;;;5.18;1.63;;;;;;;;;;5066239;28;20028;-76
2022/08/21 10:51:22;;;;;;;4.30;1.70;;;;;;;;;;5062802;28;20032;-77
2022/08/21 10:54:23;;;;;;;6.82;1.83;;;;;;;;;;5072997;28;20423;-84
2022/08/21 10:56:56;;;;;;;4.40;1.63;;;;;;;;;;5067046;28;20153;-85
2022/08/21 10:59:53;;;;;;;5.65;2.00;;;;;;;;;;5071412;28;20084;-76
2022/08/21 11:02:26;;;;;;;5.57;1.52;;;;;;;;;;5070719;28;20037;-75
2022/08/21 11:04:55;;;;;;;4.32;1.52;;;;;;;;;;5057764;28;20017;-76
2022/08/21 11:07:39;;;;;;;4.57;1.45;;;;;;;;;;5071414;28;20078;-76
2022/08/21 11:10:24;;;;;;;4.15;1.50;;;;;;;;;;5057334;28;20028;-84
2022/08/21 11:12:55;;;;;;;6.43;1.88;;;;;;;;;;5072408;28;20035;-84
2022/08/21 11:15:50;;;;;;;7.18;1.77;;;;;;;;;;5071471;28;20110;-83
2022/08/21 11:18:34;;;;;;;3.70;1.65;;;;;;;;;;5066372;28;20370;-77
2022/08/21 11:21:25;;;;;;;4.68;1.48;;;;;;;;;;5071336;28;20384;-77
2022/08/21 11:24:28;;;;;;;5.85;1.58;;;;;;;;;;5057099;28;20020;-82
2022/08/21 11:26:56;;;;;;;2.80;1.10;;;;;;;;;;5071268;28;20107;-76
2022/08/21 11:29:31;;;;;;;3.50;1.10;;;;;;;;;;5067722;28;20580;-84
2022/08/21 11:32:03;;;;;;;2.92;1.00;;;;;;;;;;5071095;28;20028;-76
2022/08/21 11:34:46;;;;;;;3.65;1.10;;;;;;;;;;5070638;28;20090;-84
2022/08/21 11:37:31;;;;;;;2.50;1.10;;;;;;;;;;5069861;28;20035;-83
2022/08/21 11:40:13;;;;;;;3.60;1.27;;;;;;;;;;5059204;28;20392;-77
2022/08/21 11:42:53;;;;;;;3.15;1.10;;;;;;;;;;5071057;28;20107;-82
2022/08/21 11:45:35;;;;;;;4.95;1.40;;;;;;;;;;5071253;28;20036;-84
2022/08/21 11:48:09;;;;;;;4.82;1.17;;;;;;;;;;5061763;28;20131;-75
2022/08/21 11:50:36;;;;;;;4.47;1.33;;;;;;;;;;5070840;28;20401;-84
2022/08/21 11:53:20;;;;;;;3.58;1.30;;;;;;;;;;5072444;28;20447;-83
2022/08/21 11:56:01;;;;;;;3.72;1.20;;;;;;;;;;5071016;28;20058;-82
2022/08/21 11:58:32;;;;;;;3.65;1.10;;;;;;;;;;5072348;28;20480;-84
2022/08/21 12:01:06;;;;;;;2.47;1.00;;;;;;;;;;5070965;28;20032;-82
2022/08/21 12:03:39;;;;;;;3.92;1.17;;;;;;;;;;5072509;28;20040;-75
2022/08/21 12:06:14;;;;;;;2.70;1.10;;;;;;;;;;5071975;28;20400;-82
2022/08/21 12:08:42;;;;;;;3.25;1.15;;;;;;;;;;5072115;28;20032;-84
2022/08/21 12:11:14;;;;;;;4.38;1.60;;;;;;;;;;5071856;28;20547;-77
2022/08/21 12:13:53;;;;;;;5.38;1.42;;;;;;;;;;5070575;28;20017;-84
2022/08/21 12:16:36;;;;;;;3.33;1.15;;;;;;;;;;5071258;28;20154;-83
2022/08/21 12:19:08;;;;;;;4.22;1.10;;;;;;;;;;5070810;28;20490;-76
2022/08/21 12:21:47;;;;;;;5.47;1.35;;;;;;;;;;5061363;28;20158;-76
2022/08/21 12:24:18;;;;;;;5.60;1.30;;;;;;;;;;5071825;28;20024;-77
2022/08/21 12:26:55;;;;;;;4.10;1.42;;;;;;;;;;5070608;28;20032;-83
2022/08/21 12:29:35;;;;;;;4.38;1.20;;;;;;;;;;5071317;28;20028;-75
2022/08/21 12:32:10;;;;;;;6.30;1.20;;;;;;;;;;5071677;28;20388;-84
2022/08/21 12:35:21;;;;;;;3.20;1.33;;;;;;;;;;5075305;28;20501;-76
2022/08/21 12:37:59;;;;;;;2.65;1.05;;;;;;;;;;5067356;28;20071;-84
2022/08/21 12:40:40;;;;;;;4.97;1.60;;;;;;;;;;5075439;28;20020;-77
2022/08/21 12:43:19;;;;;;;4.40;1.45;;;;;;;;;;5073195;28;20123;-84
2022/08/21 12:45:47;;;;;;;3.53;1.15;;;;;;;;;;5075426;28;20020;-82
2022/08/21 12:48:18;;;;;;;3.05;1.00;;;;;;;;;;5075273;28;20254;-76
2022/08/21 12:50:51;;;;;;;6.97;1.63;;;;;;;;;;5073876;28;20067;-82
2022/08/21 12:53:52;;;;;;;4.93;1.20;;;;;;;;;;5073613;28;20052;-83
2022/08/21 12:56:23;;;;;;;3.70;1.17;;;;;;;;;;5073852;28;20031;-82
2022/08/21 12:58:55;;;;;;;3.83;1.08;;;;;;;;;;5074044;28;20381;-75
2022/08/21 13:01:28;;;;;;;4.03;1.10;;;;;;;;;;5074885;28;20082;-75
2022/08/21 13:03:57;;;;;;;3.65;1.10;;;;;;;;;;5075193;28;20070;-82
2022/08/21 13:06:23;;;;;;;3.97;1.30;;;;;;;;;;5073669;28;20043;-82
2022/08/21 13:08:57;;;;;;;3.55;1.20;;;;;;;;;;5073559;28;20020;-77
2022/08/21 13:11:24;;;;;;;3.63;1.17;;;;;;;;;;5073566;28;20020;-76
2022/08/21 13:13:50;;;;;;;4.25;1.40;;;;;;;;;;5073631;28;20029;-85
2022/08/21 13:16:26;;;;;;;3.00;1.27;;;;;;;;;;5073353;28;20024;-83
2022/08/21 13:19:05;;;;;;;3.53;1.10;;;;;;;;;;5070001;28;20393;-84
2022/08/21 13:21:33;;;;;;;2.55;1.00;;;;;;;;;;5073291;28;20484;-82
2022/08/21 13:24:19;;;;;;;3.72;0.93;;;;;;;;;;5073226;28;20032;-82
2022/08/21 13:26:44;;;;;;;3.90;1.30;;;;;;;;;;5073404;28;20040;-82
2022/08/21 13:29:12;;;;;;;3.67;1.30;;;;;;;;;;5058271;28;20028;-75
2022/08/21 13:31:42;;;;;;;4.68;1.40;;;;;;;;;;5073194;28;20055;-75
2022/08/21 13:34:10;;;;;;;3.03;1.15;;;;;;;;;;5073680;28;20041;-76
2022/08/21 13:36:39;;;;;;;2.85;0.90;;;;;;;;;;5074506;28;20036;-76
2022/08/21 13:39:07;;;;;;;2.83;1.20;;;;;;;;;;5072925;28;20017;-84
2022/08/21 13:41:36;;;;;;;3.15;1.08;;;;;;;;;;5071752;28;20536;-82
2022/08/21 13:44:13;;;;;;;4.78;1.83;;;;;;;;;;5065429;28;20029;-83
2022/08/21 13:46:38;;;;;;;7.05;1.30;;;;;;;;;;5072848;28;20030;-83
2022/08/21 13:49:06;;;;;;;4.05;0.98;;;;;;;;;;5074139;28;20107;-82
2022/08/21 13:51:33;;;;;;;2.92;1.05;;;;;;;;;;5074077;28;20385;-82
2022/08/21 13:53:58;;;;;;;2.70;0.95;;;;;;;;;;5074278;28;20028;-77
2022/08/21 13:56:30;;;;;;;2.92;1.00;;;;;;;;;;5073658;28;20430;-76
2022/08/21 13:58:58;;;;;;;3.60;0.90;;;;;;;;;;5074070;28;20021;-76
2022/08/21 14:01:31;;;;;;;5.40;1.60;;;;;;;;;;5073478;28;20268;-82
2022/08/21 14:04:14;;;;;;;4.75;1.15;;;;;;;;;;5072914;28;20488;-75
2022/08/21 14:06:40;;;;;;;3.38;1.00;;;;;;;;;;5073702;28;20025;-76
2022/08/21 14:09:12;;;;;;;2.67;0.98;;;;;;;;;;5073962;28;20020;-75
2022/08/21 14:11:39;;;;;;;3.47;0.90;;;;;;;;;;5072302;28;20024;-76
2022/08/21 14:14:25;;;;;;;2.53;0.93;;;;;;;;;;5072534;28;20032;-82
2022/08/21 14:16:58;;;;;;;3.35;1.13;;;;;;;;;;5065184;28;20086;-82
2022/08/21 14:19:39;;;;;;;3.08;0.98;;;;;;;;;;5073574;28;20401;-83
2022/08/21 14:22:29;;;;;;;2.80;1.00;;;;;;;;;;5068780;28;20069;-79
2022/08/21 14:25:05;;;;;;;3.33;1.10;;;;;;;;;;5073548;28;20043;-83
2022/08/21 14:27:32;;;;;;;4.68;0.82;;;;;;;;;;5073244;28;20042;-76
2022/08/21 14:30:01;;;;;;;4.45;0.98;;;;;;;;;;5073472;28;20033;-83
2022/08/21 14:32:34;;;;;;;3.20;1.30;;;;;;;;;;5071741;28;20020;-76
2022/08/21 14:34:59;;;;;;;3.88;1.17;;;;;;;;;;5072996;28;20396;-77
2022/08/21 14:37:25;;;;;;;5.40;1.30;;;;;;;;;;5072963;28;20039;-77
2022/08/21 14:39:50;;;;;;;6.68;1.50;;;;;;;;;;5071537;28;20035;-76
2022/08/21 14:42:16;;;;;;;4.57;1.63;;;;;;;;;;5071627;28;20485;-75
2022/08/21 14:44:41;;;;;;;4.63;1.20;;;;;;;;;;5071934;28;20051;-78
2022/08/21 14:47:08;;;;;;;2.95;1.20;;;;;;;;;;5073137;28;20032;-75
2022/08/21 14:49:33;;;;;;;3.38;1.20;;;;;;;;;;5073146;28;20021;-82
2022/08/21 14:51:59;;;;;;;4.03;1.52;;;;;;;;;;5072120;28;20085;-84
2022/08/21 14:54:29;;;;;;;3.10;1.70;;;;;;;;;;5071952;28;20524;-77
2022/08/21 14:56:55;;;;;;;3.33;1.20;;;;;;;;;;5072768;28;20024;-82
2022/08/21 14:59:21;;;;;;;4.80;1.60;;;;;;;;;;5071748;28;20381;-75
2022/08/21 15:01:46;;;;;;;4.32;1.40;;;;;;;;;;5072559;28;20059;-83
2022/08/21 15:04:12;;;;;;;3.90;1.40;;;;;;;;;;5073089;28;20021;-75